createdAt,value
2023-05-23T00:00:29.032Z,97.58
2023-05-23T00:02:57.158Z,98.05
2023-05-23T00:05:26.878Z,98.85
2023-05-23T00:07:54.794Z,99.82
2023-05-23T00:10:23.628Z,98.92
2023-05-23T00:12:52.640Z,98.54
2023-05-23T00:15:21.029Z,98.32
2023-05-23T00:17:52.027Z,98.31
2023-05-23T00:20:21.212Z,97.83
2023-05-23T00:22:50.422Z,97.99
2023-05-23T00:25:18.405Z,98.26
2023-05-23T00:27:46.266Z,99.10
2023-05-23T00:30:14.355Z,99.52
2023-05-23T00:32:42.429Z,99.63
2023-05-23T00:35:10.659Z,99.59
2023-05-23T00:37:38.520Z,99.80
2023-05-23T00:40:09.378Z,99.92
2023-05-23T00:42:37.421Z,99.66
2023-05-23T00:45:09.435Z,100.00
2023-05-23T00:47:37.544Z,100.00
2023-05-23T00:50:09.497Z,100.00
2023-05-23T00:52:40.267Z,100.00
2023-05-23T00:55:13.430Z,100.00
2023-05-23T00:57:44.698Z,100.00
2023-05-23T01:00:14.414Z,100.00
2023-05-23T01:02:46.143Z,100.00
2023-05-23T01:05:17.696Z,100.00
2023-05-23T01:07:46.844Z,100.00
2023-05-23T01:10:18.264Z,100.00
2023-05-23T01:12:58.032Z,100.00
2023-05-23T01:15:38.972Z,100.00
2023-05-23T01:18:11.688Z,100.00
2023-05-23T01:20:45.390Z,100.00
2023-05-23T01:23:38.360Z,100.00
2023-05-23T01:26:19.979Z,100.00
2023-05-23T01:28:55.111Z,100.00
2023-05-23T01:31:26.890Z,100.00
2023-05-23T01:33:57.133Z,100.00
2023-05-23T01:36:25.407Z,100.00
2023-05-23T01:38:53.451Z,100.00
2023-05-23T01:41:21.889Z,100.00
2023-05-23T01:43:51.342Z,100.00
2023-05-23T01:46:20.120Z,99.92
2023-05-23T01:48:49.087Z,98.71
2023-05-23T01:51:17.276Z,98.72
2023-05-23T01:53:45.416Z,98.39
2023-05-23T01:56:13.876Z,97.86
2023-05-23T01:58:42.444Z,98.21
2023-05-23T02:01:12.671Z,99.21
2023-05-23T02:03:41.040Z,100.00
2023-05-23T02:06:08.967Z,100.00
2023-05-23T02:08:37.093Z,97.87
2023-05-23T02:11:05.122Z,96.05
2023-05-23T02:13:33.378Z,96.92
2023-05-23T02:16:01.391Z,97.35
2023-05-23T02:18:30.927Z,96.96
2023-05-23T02:20:58.759Z,96.30
2023-05-23T02:23:26.791Z,95.80
2023-05-23T02:25:54.649Z,94.19
2023-05-23T02:28:22.528Z,93.76
2023-05-23T02:30:50.559Z,94.23
2023-05-23T02:33:19.749Z,93.38
2023-05-23T02:35:51.459Z,93.89
2023-05-23T02:38:21.818Z,93.58
2023-05-23T02:40:50.691Z,93.25
2023-05-23T02:43:18.665Z,93.14
2023-05-23T02:45:46.678Z,93.31
2023-05-23T02:48:14.636Z,93.16
2023-05-23T02:50:42.700Z,93.41
2023-05-23T02:53:12.108Z,93.49
2023-05-23T02:55:40.349Z,93.96
2023-05-23T02:58:09.037Z,93.27
2023-05-23T03:00:37.685Z,93.59
2023-05-23T03:03:05.802Z,93.35
2023-05-23T03:05:34.350Z,93.43
2023-05-23T03:08:02.558Z,93.66
2023-05-23T03:10:31.822Z,93.33
2023-05-23T03:12:59.849Z,92.85
2023-05-23T03:15:27.812Z,93.02
2023-05-23T03:17:55.807Z,92.61
2023-05-23T03:20:23.864Z,93.68
2023-05-23T03:22:53.236Z,92.90
2023-05-23T03:25:23.934Z,92.63
2023-05-23T03:27:53.421Z,92.51
2023-05-23T03:30:21.674Z,93.24
2023-05-23T03:32:49.995Z,93.07
2023-05-23T03:35:18.429Z,92.23
2023-05-23T03:37:46.440Z,92.25
2023-05-23T03:40:14.351Z,91.74
2023-05-23T03:42:42.378Z,91.41
2023-05-23T03:45:12.354Z,90.61
2023-05-23T03:47:40.500Z,91.03
2023-05-23T03:50:09.323Z,91.06
2023-05-23T03:52:37.397Z,90.76
2023-05-23T03:55:05.866Z,90.47
2023-05-23T03:57:33.941Z,90.35
2023-05-23T04:00:01.922Z,90.10
2023-05-23T04:02:31.551Z,91.03
2023-05-23T04:05:00.802Z,89.52
2023-05-23T04:07:28.778Z,89.01
2023-05-23T04:09:56.636Z,88.67
2023-05-23T04:12:25.136Z,88.72
2023-05-23T04:14:53.189Z,87.56
2023-05-23T04:17:21.294Z,88.73
2023-05-23T04:19:50.861Z,89.07
2023-05-23T04:22:18.831Z,89.29
2023-05-23T04:24:46.814Z,90.03
2023-05-23T04:27:14.824Z,90.64
2023-05-23T04:29:42.844Z,90.70
2023-05-23T04:32:12.419Z,90.29
2023-05-23T04:34:41.298Z,90.47
2023-05-23T04:37:11.255Z,89.79
2023-05-23T04:39:39.078Z,90.38
2023-05-23T04:42:08.402Z,90.01
2023-05-23T04:44:37.497Z,90.98
2023-05-23T04:47:05.852Z,90.31
2023-05-23T04:49:34.667Z,90.69
2023-05-23T04:52:02.652Z,90.43
2023-05-23T04:54:33.158Z,90.97
2023-05-23T04:57:01.743Z,91.44
2023-05-23T04:59:29.632Z,91.44
2023-05-23T05:01:57.607Z,91.65
2023-05-23T05:04:25.667Z,91.01
2023-05-23T05:06:53.772Z,91.55
2023-05-23T05:09:22.290Z,91.17
2023-05-23T05:11:51.868Z,91.57
2023-05-23T05:14:22.619Z,90.76
2023-05-23T05:16:51.458Z,91.71
2023-05-23T05:19:19.628Z,91.32
2023-05-23T05:21:47.736Z,91.28
2023-05-23T05:24:15.907Z,91.80
2023-05-23T05:26:43.873Z,91.57
2023-05-23T05:29:13.469Z,92.14
2023-05-23T05:31:42.476Z,93.04
2023-05-23T05:34:11.153Z,93.12
2023-05-23T05:36:46.041Z,92.93
2023-05-23T05:39:14.410Z,92.76
2023-05-23T05:41:45.433Z,93.28
2023-05-23T05:44:14.627Z,93.14
2023-05-23T05:46:42.625Z,93.43
2023-05-23T05:49:12.361Z,93.98
2023-05-23T05:51:40.511Z,94.62
2023-05-23T05:54:08.860Z,94.83
2023-05-23T05:56:36.834Z,94.15
2023-05-23T05:59:04.746Z,94.40
2023-05-23T06:01:34.905Z,94.33
2023-05-23T06:04:03.371Z,93.81
2023-05-23T06:06:32.149Z,94.32
2023-05-23T06:09:00.548Z,94.03
2023-05-23T06:11:28.462Z,94.45
2023-05-23T06:13:56.467Z,95.06
2023-05-23T06:16:24.435Z,95.28
2023-05-23T06:18:54.189Z,94.85
2023-05-23T06:21:25.535Z,95.36
2023-05-23T06:23:53.390Z,96.84
2023-05-23T06:26:21.196Z,96.31
2023-05-23T06:28:49.375Z,96.11
2023-05-23T06:31:17.350Z,95.68
2023-05-23T06:33:45.314Z,95.66
2023-05-23T06:36:14.573Z,97.43
2023-05-23T06:38:42.555Z,97.47
2023-05-23T06:41:10.433Z,96.70
2023-05-23T06:43:38.378Z,97.93
2023-05-23T06:46:07.539Z,98.05
2023-05-23T06:48:35.564Z,98.66
2023-05-23T06:51:03.870Z,98.93
2023-05-23T06:53:33.679Z,99.14
2023-05-23T06:56:01.562Z,98.95
2023-05-23T06:58:30.004Z,99.02
2023-05-23T07:00:58.641Z,99.40
2023-05-23T07:03:27.482Z,99.62
2023-05-23T07:05:55.772Z,99.37
2023-05-23T07:08:23.892Z,99.61
2023-05-23T07:10:53.183Z,98.17
2023-05-23T07:13:21.050Z,96.18
2023-05-23T07:15:49.084Z,95.15
2023-05-23T07:18:17.034Z,94.30
2023-05-23T07:20:44.902Z,92.59
2023-05-23T07:23:12.887Z,91.89
2023-05-23T07:25:53.748Z,91.82
2023-05-23T07:28:30.499Z,93.54
2023-05-23T07:30:58.747Z,92.44
2023-05-23T07:33:26.819Z,91.98
2023-05-23T07:35:55.057Z,91.95
2023-05-23T07:38:22.899Z,92.22
2023-05-23T07:40:59.160Z,91.19
2023-05-23T07:43:32.327Z,90.26
2023-05-23T07:46:00.272Z,89.71
2023-05-23T07:48:28.219Z,90.53
2023-05-23T07:50:56.304Z,89.77
2023-05-23T07:53:24.158Z,88.43
2023-05-23T07:55:52.498Z,88.36
2023-05-23T07:58:20.509Z,87.38
2023-05-23T08:00:52.500Z,85.81
2023-05-23T08:03:21.097Z,84.94
2023-05-23T08:05:48.933Z,85.20
2023-05-23T08:08:16.789Z,82.94
2023-05-23T08:10:45.836Z,81.69
2023-05-23T08:13:14.332Z,81.25
2023-05-23T08:15:42.321Z,81.09
2023-05-23T08:18:12.209Z,81.52
2023-05-23T08:20:40.397Z,80.60
2023-05-23T08:23:08.340Z,80.89
2023-05-23T08:25:36.336Z,82.26
2023-05-23T08:28:04.221Z,81.57
2023-05-23T08:30:32.850Z,79.95
2023-05-23T08:33:04.764Z,80.63
2023-05-23T08:35:36.508Z,81.33
2023-05-23T08:38:07.766Z,80.59
2023-05-23T08:40:36.951Z,79.99
2023-05-23T08:43:05.003Z,78.90
2023-05-23T08:45:34.897Z,77.20
2023-05-23T08:48:04.491Z,75.75
2023-05-23T08:50:32.928Z,74.91
2023-05-23T08:53:03.890Z,76.35
2023-05-23T08:55:31.980Z,78.24
2023-05-23T08:58:00.735Z,78.69
2023-05-23T09:00:29.428Z,80.70
2023-05-23T09:02:58.472Z,81.98
2023-05-23T09:05:27.923Z,82.45
2023-05-23T09:07:56.868Z,85.04
2023-05-23T09:10:29.865Z,85.37
2023-05-23T09:12:58.427Z,84.99
2023-05-23T09:15:27.377Z,86.53
2023-05-23T09:18:00.672Z,88.09
2023-05-23T09:20:29.734Z,89.98
2023-05-23T09:22:58.016Z,91.94
2023-05-23T09:25:27.384Z,91.93
2023-05-23T09:27:56.686Z,91.88
2023-05-23T09:30:24.659Z,91.99
2023-05-23T09:33:04.779Z,92.26
2023-05-23T09:35:33.826Z,92.76
2023-05-23T09:38:01.814Z,91.88
2023-05-23T09:40:34.586Z,92.08
2023-05-23T09:43:07.851Z,91.95
2023-05-23T09:45:36.339Z,91.74
2023-05-23T09:48:04.508Z,90.83
2023-05-23T09:50:34.225Z,91.42
2023-05-23T09:53:02.279Z,91.63
2023-05-23T09:55:30.209Z,91.30
2023-05-23T09:58:01.883Z,90.18
2023-05-23T10:00:29.929Z,90.96
2023-05-23T10:03:08.313Z,90.87
2023-05-23T10:05:40.790Z,91.74
2023-05-23T10:08:15.460Z,91.31
2023-05-23T10:11:33.938Z,90.84
2023-05-23T10:14:07.938Z,88.50
2023-05-23T10:16:45.289Z,88.30
2023-05-23T10:19:21.856Z,88.96
2023-05-23T10:21:52.461Z,89.13
2023-05-23T10:24:21.007Z,88.61
2023-05-23T10:26:50.513Z,87.46
2023-05-23T10:29:19.998Z,86.31
2023-05-23T10:31:48.722Z,86.45
2023-05-23T10:34:24.272Z,85.57
2023-05-23T10:37:00.639Z,84.60
2023-05-23T10:39:51.081Z,82.80
2023-05-23T10:42:25.924Z,82.81
2023-05-23T10:45:15.188Z,82.14
2023-05-23T10:47:43.195Z,81.18
2023-05-23T10:50:14.614Z,81.27
2023-05-23T10:52:43.186Z,81.54
2023-05-23T10:55:15.400Z,80.40
2023-05-23T10:57:44.768Z,79.50
2023-05-23T11:00:18.125Z,78.77
2023-05-23T11:02:55.625Z,77.91
2023-05-23T11:05:26.877Z,78.58
2023-05-23T11:08:11.995Z,76.29
2023-05-23T11:10:53.898Z,75.96
2023-05-23T11:13:22.842Z,72.91
2023-05-23T11:15:52.502Z,71.88
2023-05-23T11:18:25.735Z,71.71
2023-05-23T11:20:54.821Z,71.01
2023-05-23T11:23:23.743Z,68.57
2023-05-23T11:25:53.869Z,67.63
2023-05-23T11:28:22.019Z,66.08
2023-05-23T11:30:50.998Z,65.35
2023-05-23T11:33:21.348Z,64.84
2023-05-23T11:35:51.837Z,63.38
2023-05-23T11:38:19.921Z,63.97
2023-05-23T11:40:48.364Z,61.80
2023-05-23T11:43:17.971Z,61.83
2023-05-23T11:45:47.540Z,61.17
2023-05-23T11:48:18.203Z,61.98
2023-05-23T11:50:49.170Z,62.19
2023-05-23T11:53:20.557Z,62.00
2023-05-23T11:55:53.262Z,63.06
2023-05-23T11:58:22.348Z,62.15
2023-05-23T12:00:50.794Z,60.54
2023-05-23T12:03:19.865Z,61.15
2023-05-23T12:05:49.788Z,60.50
2023-05-23T12:08:18.196Z,59.34
2023-05-23T12:10:55.354Z,58.76
2023-05-23T12:13:26.162Z,57.74
2023-05-23T12:15:56.293Z,56.94
2023-05-23T12:18:24.633Z,56.49
2023-05-23T12:20:54.533Z,56.09
2023-05-23T12:23:26.371Z,55.58
2023-05-23T12:25:55.533Z,54.03
2023-05-23T12:28:36.962Z,52.92
2023-05-23T12:31:13.594Z,52.55
2023-05-23T12:33:44.493Z,52.36
2023-05-23T12:36:13.857Z,53.86
2023-05-23T12:38:45.492Z,53.10
2023-05-23T12:41:16.906Z,53.03
2023-05-23T12:43:52.727Z,51.77
2023-05-23T12:46:20.977Z,52.17
2023-05-23T12:48:48.858Z,51.46
2023-05-23T12:51:18.724Z,51.70
2023-05-23T12:53:47.026Z,51.67
2023-05-23T12:56:15.128Z,51.44
2023-05-23T12:58:43.683Z,51.79
2023-05-23T13:01:12.330Z,51.52
2023-05-23T13:03:40.573Z,52.23
2023-05-23T13:06:09.624Z,52.38
2023-05-23T13:08:38.987Z,51.18
2023-05-23T13:11:06.927Z,50.83
2023-05-23T13:13:34.913Z,51.56
2023-05-23T13:16:02.890Z,51.87
2023-05-23T13:18:31.138Z,51.63
2023-05-23T13:20:59.140Z,52.13
2023-05-23T13:23:27.065Z,51.95
2023-05-23T13:25:58.027Z,51.58
2023-05-23T13:28:26.055Z,51.68
2023-05-23T13:30:53.963Z,52.63
2023-05-23T13:33:23.207Z,51.58
2023-05-23T13:35:52.568Z,51.15
2023-05-23T13:38:21.307Z,51.46
2023-05-23T13:40:51.698Z,51.42
2023-05-23T13:43:21.125Z,51.42
2023-05-23T13:45:49.177Z,51.84
2023-05-23T13:48:17.107Z,50.53
2023-05-23T13:50:45.613Z,49.84
2023-05-23T13:53:16.627Z,49.99
2023-05-23T13:55:45.657Z,50.02
2023-05-23T13:58:13.809Z,49.43
2023-05-23T14:00:43.388Z,49.07
2023-05-23T14:03:11.892Z,49.82
2023-05-23T14:05:39.967Z,49.96
2023-05-23T14:08:08.151Z,49.57
2023-05-23T14:10:36.029Z,49.40
2023-05-23T14:13:04.045Z,49.56
2023-05-23T14:15:33.822Z,48.43
2023-05-23T14:18:04.221Z,48.74
2023-05-23T14:20:33.154Z,49.09
2023-05-23T14:23:01.478Z,49.07
2023-05-23T14:25:29.337Z,49.56
2023-05-23T14:27:57.241Z,49.82
2023-05-23T14:30:25.824Z,49.90
2023-05-23T14:32:54.640Z,49.29
2023-05-23T14:35:25.704Z,50.26
2023-05-23T14:37:53.529Z,50.40
2023-05-23T14:40:21.607Z,50.82
2023-05-23T14:42:49.403Z,50.67
2023-05-23T14:45:19.057Z,50.82
2023-05-23T14:47:47.218Z,51.29
2023-05-23T14:50:15.919Z,49.88
2023-05-23T14:52:45.303Z,49.63
2023-05-23T14:55:13.224Z,50.08
2023-05-23T14:57:41.022Z,51.01
2023-05-23T15:00:10.269Z,51.35
2023-05-23T15:02:38.469Z,51.20
2023-05-23T15:05:07.859Z,51.24
2023-05-23T15:07:35.745Z,50.29
2023-05-23T15:10:06.441Z,49.61
2023-05-23T15:12:34.283Z,49.98
2023-05-23T15:15:04.139Z,50.81
2023-05-23T15:17:32.140Z,51.43
2023-05-23T15:20:00.151Z,51.35
2023-05-23T15:22:36.531Z,51.77
2023-05-23T15:25:08.318Z,52.09
2023-05-23T15:27:36.223Z,52.06
2023-05-23T15:30:05.238Z,51.36
2023-05-23T15:32:33.261Z,51.37
2023-05-23T15:35:01.041Z,51.18
2023-05-23T15:37:28.971Z,50.56
2023-05-23T15:39:57.022Z,50.46
2023-05-23T15:42:26.983Z,50.60
2023-05-23T15:44:54.918Z,51.22
2023-05-23T15:47:23.232Z,51.10
2023-05-23T15:49:51.156Z,51.37
2023-05-23T15:52:18.978Z,51.99
2023-05-23T15:54:47.293Z,51.24
2023-05-23T15:57:15.063Z,52.12
2023-05-23T15:59:44.536Z,52.78
2023-05-23T16:02:12.454Z,53.64
2023-05-23T16:04:40.286Z,52.51
2023-05-23T16:07:08.159Z,52.70
2023-05-23T16:09:36.034Z,52.46
2023-05-23T16:12:04.346Z,51.21
2023-05-23T16:14:35.853Z,51.06
2023-05-23T16:17:07.002Z,51.96
2023-05-23T16:19:35.545Z,51.63
2023-05-23T16:22:03.785Z,52.63
2023-05-23T16:24:31.654Z,52.73
2023-05-23T16:27:03.315Z,52.63
2023-05-23T16:29:31.728Z,53.18
2023-05-23T16:31:59.952Z,53.51
2023-05-23T16:34:29.472Z,52.91
2023-05-23T16:36:57.341Z,53.31
2023-05-23T16:39:28.626Z,53.37
2023-05-23T16:41:58.740Z,53.47
2023-05-23T16:44:28.154Z,52.88
2023-05-23T16:46:56.214Z,52.51
2023-05-23T16:49:26.953Z,52.13
2023-05-23T16:51:56.404Z,52.29
2023-05-23T16:54:28.562Z,52.11
2023-05-23T16:57:00.440Z,52.91
2023-05-23T16:59:29.013Z,52.47
2023-05-23T17:01:57.101Z,53.02
2023-05-23T17:04:25.981Z,52.93
2023-05-23T17:06:54.007Z,52.73
2023-05-23T17:09:24.349Z,52.86
2023-05-23T17:11:52.852Z,53.10
2023-05-23T17:14:21.130Z,52.65
2023-05-23T17:16:49.095Z,52.27
2023-05-23T17:19:17.091Z,51.33
2023-05-23T17:21:45.075Z,51.48
2023-05-23T17:24:13.663Z,51.99
2023-05-23T17:26:42.990Z,52.31
2023-05-23T17:29:11.130Z,52.00
2023-05-23T17:31:42.319Z,53.19
2023-05-23T17:34:12.178Z,52.96
2023-05-23T17:36:40.426Z,53.62
2023-05-23T17:39:08.617Z,54.13
2023-05-23T17:41:36.711Z,54.82
2023-05-23T17:44:05.977Z,55.71
2023-05-23T17:46:34.636Z,55.96
2023-05-23T17:49:02.709Z,55.30
2023-05-23T17:51:30.911Z,55.33
2023-05-23T17:53:59.084Z,55.58
2023-05-23T17:56:27.072Z,56.27
2023-05-23T17:58:55.007Z,56.41
2023-05-23T18:01:26.296Z,56.61
2023-05-23T18:03:54.801Z,56.35
2023-05-23T18:06:23.186Z,56.38
2023-05-23T18:08:51.260Z,56.28
2023-05-23T18:11:19.732Z,55.91
2023-05-23T18:13:47.575Z,55.99
2023-05-23T18:16:15.400Z,56.54
2023-05-23T18:18:44.791Z,56.03
2023-05-23T18:21:12.724Z,55.73
2023-05-23T18:23:40.817Z,55.73
2023-05-23T18:26:09.097Z,56.13
2023-05-23T18:28:37.044Z,55.83
2023-05-23T18:31:05.536Z,56.40
2023-05-23T18:33:33.708Z,56.50
2023-05-23T18:36:03.357Z,57.00
2023-05-23T18:38:31.240Z,57.14
2023-05-23T18:40:59.216Z,57.64
2023-05-23T18:43:27.018Z,58.05
2023-05-23T18:45:55.047Z,58.56
2023-05-23T18:48:25.353Z,58.43
2023-05-23T18:50:53.137Z,58.61
2023-05-23T18:53:23.105Z,58.95
2023-05-23T18:55:51.376Z,59.16
2023-05-23T18:58:19.687Z,59.00
2023-05-23T19:00:47.845Z,59.28
2023-05-23T19:03:16.129Z,59.51
2023-05-23T19:05:44.214Z,59.18
2023-05-23T19:08:12.056Z,58.68
2023-05-23T19:10:42.243Z,58.89
2023-05-23T19:13:10.221Z,58.80
2023-05-23T19:15:38.239Z,58.41
2023-05-23T19:18:06.243Z,58.63
2023-05-23T19:20:34.163Z,59.10
2023-05-23T19:23:02.040Z,58.53
2023-05-23T19:25:29.940Z,58.75
2023-05-23T19:27:59.171Z,58.92
2023-05-23T19:30:27.008Z,59.41
2023-05-23T19:32:55.352Z,59.02
2023-05-23T19:35:24.245Z,59.12
2023-05-23T19:37:52.325Z,58.62
2023-05-23T19:40:21.518Z,59.01
2023-05-23T19:42:49.552Z,59.25
2023-05-23T19:45:19.179Z,58.92
2023-05-23T19:47:47.367Z,59.19
2023-05-23T19:50:16.138Z,59.11
2023-05-23T19:52:44.168Z,58.46
2023-05-23T19:55:12.082Z,58.68
2023-05-23T19:57:40.003Z,58.59
2023-05-23T20:00:10.476Z,58.59
2023-05-23T20:02:39.931Z,58.40
2023-05-23T20:05:09.305Z,58.39
2023-05-23T20:07:37.665Z,58.51
2023-05-23T20:10:06.672Z,58.81
2023-05-23T20:12:34.905Z,58.73
2023-05-23T20:15:03.830Z,59.14
2023-05-23T20:17:31.914Z,58.52
2023-05-23T20:20:02.332Z,58.16
2023-05-23T20:22:30.135Z,58.20
2023-05-23T20:24:58.136Z,58.43
2023-05-23T20:27:26.805Z,58.32
2023-05-23T20:29:54.778Z,58.38
2023-05-23T20:32:23.247Z,58.09
2023-05-23T20:34:51.487Z,58.36
2023-05-23T20:37:21.048Z,58.13
2023-05-23T20:39:49.438Z,58.03
2023-05-23T20:42:17.368Z,58.13
2023-05-23T20:44:46.850Z,58.33
2023-05-23T20:47:15.611Z,58.08
2023-05-23T20:49:44.622Z,58.50
2023-05-23T20:52:12.761Z,59.43
2023-05-23T20:54:42.782Z,59.29
2023-05-23T20:57:10.683Z,59.93
2023-05-23T20:59:38.571Z,60.27
2023-05-23T21:02:08.010Z,60.13
2023-05-23T21:04:35.964Z,60.91
2023-05-23T21:07:03.992Z,60.69
2023-05-23T21:09:31.973Z,61.03
2023-05-23T21:12:02.187Z,61.05
2023-05-23T21:14:30.023Z,61.26
2023-05-23T21:16:58.129Z,61.00
2023-05-23T21:19:26.334Z,60.85
2023-05-23T21:21:56.188Z,61.05
2023-05-23T21:24:25.372Z,61.28
2023-05-23T21:26:53.365Z,61.42
2023-05-23T21:29:22.565Z,61.55
2023-05-23T21:31:50.664Z,61.42
2023-05-23T21:34:23.692Z,61.13
2023-05-23T21:36:52.490Z,60.84
2023-05-23T21:39:20.829Z,61.27
2023-05-23T21:41:48.653Z,61.18
2023-05-23T21:44:17.757Z,61.43
2023-05-23T21:46:47.437Z,61.60
2023-05-23T21:49:15.605Z,61.94
2023-05-23T21:51:44.214Z,61.74
2023-05-23T21:54:12.411Z,61.72
2023-05-23T21:56:40.392Z,61.93
2023-05-23T21:59:08.572Z,61.35
2023-05-23T22:01:36.794Z,61.07
2023-05-23T22:04:06.665Z,60.97
2023-05-23T22:06:35.042Z,61.72
2023-05-23T22:09:03.033Z,62.01
2023-05-23T22:11:34.135Z,62.00
2023-05-23T22:14:02.762Z,61.86
2023-05-23T22:16:33.261Z,62.49
2023-05-23T22:19:02.301Z,62.22
2023-05-23T22:21:31.894Z,61.92
2023-05-23T22:24:00.229Z,61.99
2023-05-23T22:26:28.687Z,61.53
2023-05-23T22:28:57.117Z,61.17
2023-05-23T22:31:25.092Z,61.06
2023-05-23T22:33:53.250Z,61.35
2023-05-23T22:36:22.056Z,61.53
2023-05-23T22:38:51.651Z,60.87
2023-05-23T22:41:19.816Z,61.21
2023-05-23T22:43:47.933Z,60.84
2023-05-23T22:46:16.188Z,60.47
2023-05-23T22:48:45.212Z,60.18
2023-05-23T22:51:14.726Z,60.19
2023-05-23T22:53:43.299Z,60.25
2023-05-23T22:56:12.997Z,60.35
2023-05-23T22:58:41.119Z,60.24
2023-05-23T23:01:09.596Z,60.64
2023-05-23T23:03:37.673Z,60.95
2023-05-23T23:06:07.728Z,61.23
2023-05-23T23:08:36.044Z,60.33
2023-05-23T23:11:04.109Z,60.66
2023-05-23T23:13:33.479Z,60.29
2023-05-23T23:16:01.296Z,60.23
2023-05-23T23:18:29.324Z,60.79
2023-05-23T23:20:57.636Z,61.27
2023-05-23T23:23:25.536Z,60.75
2023-05-23T23:25:53.685Z,60.86
2023-05-23T23:28:21.666Z,61.25
2023-05-23T23:30:50.915Z,61.17
2023-05-23T23:33:18.802Z,61.33
2023-05-23T23:35:48.714Z,61.25
2023-05-23T23:38:16.906Z,61.29
2023-05-23T23:40:45.920Z,61.58
2023-05-23T23:43:14.034Z,61.79
2023-05-23T23:45:42.204Z,61.72
2023-05-23T23:48:13.896Z,61.60
2023-05-23T23:50:42.392Z,61.71
2023-05-23T23:53:10.506Z,61.91
2023-05-23T23:55:38.353Z,61.82
2023-05-23T23:58:06.245Z,62.02
